createdAt,value
2018-07-02T00:01:07.026Z,10.57
2018-07-02T00:03:34.527Z,11.73
2018-07-02T00:09:03.896Z,20.45
2018-07-02T00:11:32.146Z,10.93
2018-07-02T00:13:59.644Z,10.43
2018-07-02T00:16:27.102Z,10.38
2018-07-02T00:18:54.614Z,9.07
2018-07-02T00:21:22.106Z,11.52
2018-07-02T00:23:49.696Z,11.20
2018-07-02T00:26:17.172Z,9.90
2018-07-02T00:28:44.689Z,10.43
2018-07-02T00:31:12.576Z,9.95
2018-07-02T00:33:40.001Z,9.65
2018-07-02T00:36:08.441Z,10.80
2018-07-02T00:38:36.881Z,9.55
2018-07-02T00:41:04.372Z,11.20
2018-07-02T00:43:31.870Z,9.90
2018-07-02T00:45:59.396Z,10.00
2018-07-02T00:48:26.890Z,12.10
2018-07-02T00:50:54.367Z,9.20
2018-07-02T00:53:21.981Z,9.55
2018-07-02T00:55:49.491Z,8.35
2018-07-02T00:58:17.035Z,8.63
2018-07-02T01:00:44.484Z,9.20
2018-07-02T01:03:11.928Z,8.65
2018-07-02T01:05:39.381Z,9.18
2018-07-02T01:08:06.817Z,15.35
2018-07-02T01:10:34.430Z,7.78
2018-07-02T01:13:01.934Z,10.93
2018-07-02T01:15:29.455Z,12.00
2018-07-02T01:17:56.934Z,8.40
2018-07-02T01:20:24.366Z,8.85
2018-07-02T01:22:51.769Z,8.55
2018-07-02T01:25:19.240Z,8.02
2018-07-02T01:27:46.723Z,8.52
2018-07-02T01:30:14.183Z,8.57
2018-07-02T01:32:41.691Z,11.82
2018-07-02T01:35:09.222Z,9.23
2018-07-02T01:37:36.685Z,12.63
2018-07-02T01:40:04.148Z,8.50
2018-07-02T01:42:31.645Z,15.07
2018-07-02T01:44:59.134Z,7.37
2018-07-02T01:47:26.617Z,6.45
2018-07-02T01:49:54.092Z,9.80
2018-07-02T01:52:21.551Z,102.60
2018-07-02T01:54:49.065Z,113.50
2018-07-02T01:57:16.508Z,101.25
2018-07-02T01:59:43.960Z,105.12
2018-07-02T02:02:11.467Z,105.55
2018-07-02T02:04:38.910Z,97.68
2018-07-02T02:07:06.392Z,102.57
2018-07-02T02:09:33.829Z,131.20
2018-07-02T02:12:01.276Z,94.20
2018-07-02T02:14:28.738Z,104.65
2018-07-02T02:16:56.275Z,103.03
2018-07-02T02:19:23.729Z,108.28
2018-07-02T02:21:51.200Z,100.57
2018-07-02T02:24:18.688Z,95.35
2018-07-02T02:26:46.964Z,106.35
2018-07-02T02:29:14.452Z,89.00
2018-07-02T02:31:41.931Z,94.90
2018-07-02T02:34:09.396Z,86.05
2018-07-02T02:36:36.858Z,87.05
2018-07-02T02:39:04.355Z,83.45
2018-07-02T02:41:31.871Z,83.10
2018-07-02T02:43:59.464Z,84.87
2018-07-02T02:46:26.913Z,86.47
2018-07-02T02:48:54.393Z,88.62
2018-07-02T02:51:21.924Z,84.45
2018-07-02T02:53:49.368Z,83.20
2018-07-02T02:56:16.798Z,85.82
2018-07-02T02:58:44.296Z,85.22
2018-07-02T03:01:11.881Z,80.65
2018-07-02T03:03:39.368Z,84.90
2018-07-02T03:06:06.795Z,82.65
2018-07-02T03:08:34.234Z,84.35
2018-07-02T03:11:01.689Z,79.95
2018-07-02T03:13:29.191Z,79.82
2018-07-02T03:15:56.696Z,76.22
2018-07-02T03:18:29.596Z,74.57
2018-07-02T03:20:57.045Z,72.05
2018-07-02T03:23:24.511Z,81.40
2018-07-02T03:25:52.035Z,97.57
2018-07-02T03:28:19.496Z,95.15
2018-07-02T03:30:47.075Z,100.50
2018-07-02T03:33:14.575Z,103.25
2018-07-02T03:35:42.093Z,98.25
2018-07-02T03:38:09.596Z,108.07
2018-07-02T03:40:37.106Z,109.25
2018-07-02T03:43:04.558Z,102.00
2018-07-02T03:45:32.036Z,103.05
2018-07-02T03:47:59.528Z,115.20
2018-07-02T03:50:27.030Z,94.82
2018-07-02T03:52:54.633Z,103.22
2018-07-02T03:55:22.153Z,104.75
2018-07-02T03:57:49.671Z,112.88
2018-07-02T04:00:17.166Z,118.10
2018-07-02T04:02:44.599Z,106.37
2018-07-02T04:05:12.243Z,107.20
2018-07-02T04:07:39.779Z,99.68
2018-07-02T04:10:07.306Z,110.88
2018-07-02T04:12:34.832Z,101.95
2018-07-02T04:15:02.325Z,97.90
2018-07-02T04:17:29.839Z,103.03
2018-07-02T04:19:57.441Z,134.50
2018-07-02T04:22:24.931Z,128.15
2018-07-02T04:24:52.450Z,137.18
2018-07-02T04:27:19.983Z,131.55
2018-07-02T04:29:47.664Z,114.95
2018-07-02T04:32:15.134Z,141.20
2018-07-02T04:34:42.672Z,129.75
2018-07-02T04:37:10.205Z,122.37
2018-07-02T04:39:37.651Z,133.02
2018-07-02T04:42:05.204Z,131.90
2018-07-02T04:44:32.690Z,122.00
2018-07-02T04:47:00.207Z,128.75
2018-07-02T04:49:27.685Z,120.87
2018-07-02T04:51:55.207Z,117.10
2018-07-02T04:54:22.827Z,118.57
2018-07-02T04:56:50.389Z,118.07
2018-07-02T04:59:18.022Z,110.75
2018-07-02T05:01:45.496Z,114.90
2018-07-02T05:04:13.164Z,107.65
2018-07-02T05:06:40.670Z,113.82
2018-07-02T05:09:08.142Z,112.65
2018-07-02T05:11:35.699Z,112.93
2018-07-02T05:14:03.444Z,111.55
2018-07-02T05:16:30.896Z,105.97
2018-07-02T05:18:58.746Z,113.43
2018-07-02T05:21:26.208Z,120.70
2018-07-02T05:23:53.765Z,125.20
2018-07-02T05:26:21.404Z,112.57
2018-07-02T05:28:48.847Z,117.57
2018-07-02T05:31:16.378Z,115.45
2018-07-02T05:33:43.840Z,106.22
2018-07-02T05:36:11.337Z,111.53
2018-07-02T05:38:38.814Z,120.25
2018-07-02T05:41:06.301Z,119.15
2018-07-02T05:43:33.791Z,113.50
2018-07-02T05:46:01.357Z,113.68
2018-07-02T05:48:28.850Z,113.97
2018-07-02T05:50:56.359Z,115.97
2018-07-02T05:53:23.837Z,112.00
2018-07-02T05:55:51.282Z,105.80
2018-07-02T05:58:18.821Z,117.95
2018-07-02T06:00:46.400Z,130.93
2018-07-02T06:03:13.867Z,112.75
2018-07-02T06:05:41.456Z,114.40
2018-07-02T06:08:09.139Z,118.22
2018-07-02T06:10:36.706Z,115.80
2018-07-02T06:13:04.381Z,121.78
2018-07-02T06:15:32.336Z,119.18
2018-07-02T06:17:59.780Z,116.30
2018-07-02T06:20:27.746Z,111.45
2018-07-02T06:22:55.280Z,111.12
2018-07-02T06:25:22.766Z,102.70
2018-07-02T06:27:50.336Z,108.78
2018-07-02T06:30:17.816Z,111.68
2018-07-02T06:32:45.442Z,111.05
2018-07-02T06:35:12.922Z,115.93
2018-07-02T06:37:40.416Z,108.68
2018-07-02T06:40:08.056Z,125.12
2018-07-02T06:42:35.523Z,112.80
2018-07-02T06:45:02.953Z,123.25
2018-07-02T06:47:30.527Z,119.30
2018-07-02T06:49:58.007Z,114.03
2018-07-02T06:54:59.362Z,127.00
2018-07-02T06:57:26.866Z,126.10
2018-07-02T06:59:54.372Z,129.38
2018-07-02T07:02:21.904Z,136.73
2018-07-02T07:04:49.375Z,133.95
2018-07-02T07:07:16.819Z,132.80
2018-07-02T07:09:44.501Z,127.93
2018-07-02T07:12:11.983Z,127.87
2018-07-02T07:14:39.499Z,121.82
2018-07-02T07:17:06.948Z,132.90
2018-07-02T07:19:34.386Z,127.55
2018-07-02T07:22:02.021Z,127.18
2018-07-02T07:24:30.034Z,138.85
2018-07-02T07:26:57.621Z,114.62
2018-07-02T07:29:26.091Z,115.20
2018-07-02T07:31:53.550Z,126.30
2018-07-02T07:34:21.050Z,125.32
2018-07-02T07:36:48.501Z,125.60
2018-07-02T07:39:16.032Z,131.23
2018-07-02T07:41:43.485Z,135.23
2018-07-02T07:44:10.976Z,144.00
2018-07-02T07:46:38.410Z,138.80
2018-07-02T07:49:05.887Z,142.68
2018-07-02T07:51:33.720Z,136.00
2018-07-02T07:54:01.195Z,143.48
2018-07-02T07:56:28.692Z,130.75
2018-07-02T07:58:56.248Z,141.68
2018-07-02T08:01:23.767Z,140.80
2018-07-02T08:03:51.261Z,132.02
2018-07-02T08:06:18.768Z,142.27
2018-07-02T08:08:46.252Z,140.30
2018-07-02T08:11:13.824Z,135.02
2018-07-02T08:13:41.253Z,147.25
2018-07-02T08:16:08.743Z,149.55
2018-07-02T08:18:36.199Z,143.90
2018-07-02T08:21:03.683Z,150.55
2018-07-02T08:23:31.188Z,138.88
2018-07-02T08:25:59.018Z,145.95
2018-07-02T08:28:26.527Z,152.60
2018-07-02T08:30:54.013Z,148.75
2018-07-02T08:33:21.497Z,162.05
2018-07-02T08:35:48.919Z,162.88
2018-07-02T08:38:16.403Z,162.40
2018-07-02T08:40:43.844Z,165.07
2018-07-02T08:43:11.463Z,163.85
2018-07-02T08:45:38.934Z,176.43
2018-07-02T08:48:06.384Z,167.35
2018-07-02T08:50:33.841Z,161.82
2018-07-02T08:53:01.508Z,156.87
2018-07-02T08:55:29.020Z,174.38
2018-07-02T08:57:56.484Z,156.43
2018-07-02T09:00:24.109Z,154.00
2018-07-02T09:02:51.953Z,166.35
2018-07-02T09:05:19.447Z,155.87
2018-07-02T09:07:46.896Z,171.85
2018-07-02T09:10:14.493Z,168.00
2018-07-02T09:12:42.002Z,172.93
2018-07-02T09:15:09.451Z,158.40
2018-07-02T09:17:37.030Z,169.15
2018-07-02T09:20:04.569Z,162.37
2018-07-02T09:22:32.064Z,161.90
2018-07-02T09:24:59.797Z,175.77
2018-07-02T09:27:27.437Z,155.93
2018-07-02T09:29:54.951Z,156.95
2018-07-02T09:32:22.525Z,166.25
2018-07-02T09:34:50.212Z,170.35
2018-07-02T09:37:17.459Z,159.98
2018-07-02T09:39:44.987Z,15.65
2018-07-02T09:42:12.489Z,18.15
2018-07-02T09:44:39.977Z,11.18
2018-07-02T09:47:07.521Z,13.55
2018-07-02T09:49:34.958Z,14.13
2018-07-02T09:52:02.488Z,94.15
2018-07-02T09:54:29.976Z,16.83
2018-07-02T09:56:57.501Z,13.20
2018-07-02T09:59:24.947Z,19.35
2018-07-02T10:01:53.017Z,19.12
2018-07-02T10:04:20.495Z,13.18
2018-07-02T10:06:48.035Z,11.43
2018-07-02T10:09:15.731Z,15.10
2018-07-02T10:11:43.458Z,15.80
2018-07-02T10:14:10.888Z,16.90
2018-07-02T10:16:38.413Z,12.20
2018-07-02T10:19:05.978Z,11.32
2018-07-02T10:21:33.438Z,12.65
2018-07-02T10:24:00.934Z,11.70
2018-07-02T10:26:28.428Z,13.30
2018-07-02T10:28:55.858Z,17.65
2018-07-02T10:31:23.516Z,12.90
2018-07-02T10:33:50.854Z,11.27
2018-07-02T10:36:18.401Z,11.88
2018-07-02T10:38:46.220Z,11.52
2018-07-02T10:41:13.883Z,11.63
2018-07-02T10:43:41.442Z,13.55
2018-07-02T10:46:09.392Z,17.65
2018-07-02T10:48:37.047Z,37.53
2018-07-02T10:51:04.595Z,30.35
2018-07-02T10:53:32.095Z,32.45
2018-07-02T10:56:00.107Z,37.60
2018-07-02T10:58:27.658Z,39.72
2018-07-02T11:00:55.109Z,39.83
2018-07-02T11:03:22.596Z,42.97
2018-07-02T11:05:50.159Z,47.20
2018-07-02T11:08:17.825Z,50.78
2018-07-02T11:10:45.452Z,48.55
2018-07-02T11:13:13.079Z,51.63
2018-07-02T11:15:40.593Z,53.10
2018-07-02T11:18:08.200Z,52.05
2018-07-02T11:20:35.680Z,56.45
2018-07-02T11:23:03.222Z,55.50
2018-07-02T11:25:30.655Z,60.50
2018-07-02T11:27:58.146Z,55.88
2018-07-02T11:30:25.649Z,68.43
2018-07-02T11:32:53.049Z,76.40
2018-07-02T11:35:21.477Z,73.82
2018-07-02T11:37:49.016Z,67.55
2018-07-02T11:40:16.489Z,59.63
2018-07-02T11:42:43.946Z,73.40
2018-07-02T11:45:11.384Z,77.03
2018-07-02T11:47:38.891Z,82.12
2018-07-02T11:50:06.397Z,88.60
2018-07-02T11:52:33.900Z,99.15
2018-07-02T11:55:01.358Z,91.85
2018-07-02T11:57:29.043Z,104.05
2018-07-02T11:59:56.469Z,98.90
2018-07-02T12:02:24.017Z,100.57
2018-07-02T12:04:52.818Z,96.55
2018-07-02T12:07:20.277Z,102.35
2018-07-02T12:09:47.825Z,109.10
2018-07-02T12:12:15.347Z,99.82
2018-07-02T12:14:43.484Z,94.32
2018-07-02T12:17:10.969Z,98.35
2018-07-02T12:19:38.453Z,102.65
2018-07-02T12:22:05.953Z,104.50
2018-07-02T12:24:33.377Z,105.80
2018-07-02T12:27:01.020Z,107.80
2018-07-02T12:29:28.479Z,105.95
2018-07-02T12:31:56.048Z,95.55
2018-07-02T12:34:23.515Z,15.00
2018-07-02T12:36:51.030Z,17.23
2018-07-02T12:39:18.501Z,12.45
2018-07-02T12:41:46.842Z,18.62
2018-07-02T12:44:14.338Z,13.82
2018-07-02T12:46:41.860Z,20.20
2018-07-02T12:49:09.230Z,19.23
2018-07-02T12:51:36.707Z,18.20
2018-07-02T12:54:04.287Z,17.85
2018-07-02T12:56:31.750Z,17.37
2018-07-02T12:58:59.685Z,15.35
2018-07-02T13:01:27.331Z,20.05
2018-07-02T13:03:55.167Z,16.27
2018-07-02T13:06:22.763Z,11.88
2018-07-02T13:08:50.247Z,15.45
2018-07-02T13:11:17.740Z,15.90
2018-07-02T13:13:45.192Z,14.98
2018-07-02T13:16:12.820Z,19.50
2018-07-02T13:18:40.244Z,17.45
2018-07-02T13:21:07.747Z,17.98
2018-07-02T13:23:35.310Z,20.70
2018-07-02T13:26:03.592Z,22.85
2018-07-02T13:28:31.127Z,17.50
2018-07-02T13:30:58.763Z,17.67
2018-07-02T13:33:26.267Z,15.80
2018-07-02T13:35:53.735Z,19.40
2018-07-02T13:38:21.190Z,24.50
2018-07-02T13:40:48.735Z,22.10
2018-07-02T13:43:16.213Z,18.37
2018-07-02T13:45:43.734Z,21.98
2018-07-02T13:48:11.383Z,21.83
2018-07-02T13:50:39.145Z,22.17
2018-07-02T13:53:06.612Z,22.65
2018-07-02T13:55:34.251Z,24.05
2018-07-02T13:58:01.712Z,18.60
2018-07-02T14:00:29.311Z,26.27
2018-07-02T14:02:56.748Z,24.55
2018-07-02T14:05:24.312Z,24.48
2018-07-02T14:07:51.830Z,23.77
2018-07-02T14:10:19.255Z,29.52
2018-07-02T14:12:47.268Z,20.62
2018-07-02T14:15:15.754Z,23.70
2018-07-02T14:17:43.278Z,22.42
2018-07-02T14:20:10.822Z,16.87
2018-07-02T14:22:38.268Z,22.40
2018-07-02T14:25:05.738Z,17.42
2018-07-02T14:27:33.299Z,17.48
2018-07-02T14:30:00.813Z,13.80
2018-07-02T14:32:28.339Z,15.40
2018-07-02T14:34:55.876Z,16.00
2018-07-02T14:37:23.332Z,21.70
2018-07-02T14:39:50.788Z,18.25
2018-07-02T14:42:18.325Z,16.30
2018-07-02T14:44:45.908Z,21.33
2018-07-02T14:47:13.438Z,18.45
2018-07-02T14:49:40.920Z,16.80
2018-07-02T14:52:08.444Z,14.25
2018-07-02T14:54:35.923Z,21.60
2018-07-02T14:57:03.380Z,17.37
2018-07-02T14:59:31.515Z,19.75
2018-07-02T15:01:59.159Z,13.80
2018-07-02T15:04:26.601Z,15.57
2018-07-02T15:06:54.126Z,17.45
2018-07-02T15:09:21.625Z,14.07
2018-07-02T15:11:49.200Z,16.40
2018-07-02T15:14:16.845Z,17.87
2018-07-02T15:16:44.263Z,16.80
2018-07-02T15:19:11.788Z,22.08
2018-07-02T15:21:39.255Z,21.05
2018-07-02T15:24:06.767Z,19.50
2018-07-02T15:26:34.269Z,19.98
2018-07-02T15:29:01.777Z,24.92
2018-07-02T15:31:29.372Z,21.52
2018-07-02T15:33:56.877Z,16.33
2018-07-02T15:36:24.750Z,13.90
2018-07-02T15:38:52.388Z,17.50
2018-07-02T15:41:19.967Z,14.07
2018-07-02T15:43:47.556Z,18.67
2018-07-02T15:46:15.078Z,15.43
2018-07-02T15:48:42.594Z,16.20
2018-07-02T15:51:10.091Z,13.88
2018-07-02T15:53:37.582Z,14.38
2018-07-02T15:56:05.035Z,26.05
2018-07-02T15:58:32.509Z,14.20
2018-07-02T16:00:59.963Z,16.52
2018-07-02T16:03:27.513Z,15.02
2018-07-02T16:05:55.075Z,14.80
2018-07-02T16:08:22.647Z,16.45
2018-07-02T16:10:50.091Z,14.85
2018-07-02T16:13:17.574Z,14.27
2018-07-02T16:15:45.043Z,10.23
2018-07-02T16:18:12.486Z,15.88
2018-07-02T16:20:40.045Z,15.60
2018-07-02T16:23:07.589Z,15.13
2018-07-02T16:25:35.103Z,14.15
2018-07-02T16:28:02.818Z,14.87
2018-07-02T16:30:30.292Z,10.70
2018-07-02T16:32:57.879Z,12.40
2018-07-02T16:35:25.381Z,13.95
2018-07-02T16:37:53.098Z,13.62
2018-07-02T16:40:20.681Z,12.32
2018-07-02T16:42:48.248Z,12.57
2018-07-02T16:45:15.661Z,12.23
2018-07-02T16:47:43.094Z,14.18
2018-07-02T16:50:10.542Z,11.27
2018-07-02T16:52:38.021Z,16.58
2018-07-02T16:55:05.577Z,12.63
2018-07-02T16:57:33.012Z,12.05
2018-07-02T17:00:00.615Z,12.77
2018-07-02T17:02:28.077Z,11.70
2018-07-02T17:04:55.804Z,10.70
2018-07-02T17:07:23.317Z,11.27
2018-07-02T17:09:50.860Z,13.60
2018-07-02T17:12:18.442Z,12.10
2018-07-02T17:14:46.007Z,11.32
2018-07-02T17:17:13.535Z,11.85
2018-07-02T17:19:41.096Z,10.80
2018-07-02T17:22:08.729Z,11.73
2018-07-02T17:24:36.159Z,15.13
2018-07-02T17:27:03.579Z,12.18
2018-07-02T17:29:31.058Z,10.73
2018-07-02T17:31:58.544Z,11.90
2018-07-02T17:34:26.313Z,12.35
2018-07-02T17:36:53.761Z,10.52
2018-07-02T17:39:21.185Z,11.60
2018-07-02T17:41:48.733Z,13.77
2018-07-02T17:44:16.166Z,12.15
2018-07-02T17:46:43.847Z,17.42
2018-07-02T17:49:11.427Z,24.37
2018-07-02T17:51:38.921Z,14.80
2018-07-02T17:54:06.413Z,14.85
2018-07-02T17:56:34.010Z,14.52
2018-07-02T17:59:01.539Z,13.65
2018-07-02T18:01:28.997Z,16.62
2018-07-02T18:03:56.541Z,13.45
2018-07-02T18:06:24.076Z,11.90
2018-07-02T18:08:51.522Z,12.27
2018-07-02T18:11:19.060Z,13.75
2018-07-02T18:13:46.635Z,12.90
2018-07-02T18:16:14.104Z,12.98
2018-07-02T18:18:41.543Z,11.23
2018-07-02T18:21:09.048Z,14.75
2018-07-02T18:23:36.509Z,14.77
2018-07-02T18:26:03.907Z,13.60
2018-07-02T18:28:31.327Z,12.77
2018-07-02T18:30:58.860Z,14.43
2018-07-02T18:33:26.318Z,10.80
2018-07-02T18:35:53.772Z,14.70
2018-07-02T18:38:21.201Z,13.43
2018-07-02T18:40:48.765Z,17.87
2018-07-02T18:43:17.181Z,12.80
2018-07-02T18:45:44.610Z,18.58
2018-07-02T18:48:12.069Z,12.95
2018-07-02T18:50:39.534Z,11.40
2018-07-02T18:53:07.094Z,12.35
2018-07-02T18:55:34.670Z,14.23
2018-07-02T18:58:02.146Z,10.32
2018-07-02T19:00:29.628Z,13.23
2018-07-02T19:02:57.393Z,20.33
2018-07-02T19:05:24.919Z,11.35
2018-07-02T19:07:52.731Z,11.05
2018-07-02T19:10:20.732Z,13.30
2018-07-02T19:12:49.670Z,17.23
2018-07-02T19:15:17.241Z,17.37
2018-07-02T19:17:44.765Z,14.10
2018-07-02T19:20:13.079Z,14.38
2018-07-02T19:22:40.634Z,14.02
2018-07-02T19:25:08.154Z,20.50
2018-07-02T19:27:35.596Z,13.55
2018-07-02T19:30:03.296Z,14.38
2018-07-02T19:32:30.902Z,12.95
2018-07-02T19:34:58.715Z,11.50
2018-07-02T19:37:26.192Z,13.90
2018-07-02T19:39:53.663Z,22.55
2018-07-02T19:42:21.921Z,12.37
2018-07-02T19:44:50.010Z,15.25
2018-07-02T19:47:17.467Z,10.82
2018-07-02T19:49:44.932Z,14.13
2018-07-02T19:52:12.563Z,10.25
2018-07-02T19:54:40.176Z,13.25
2018-07-02T19:57:07.701Z,15.30
2018-07-02T19:59:35.212Z,13.85
2018-07-02T20:02:02.711Z,16.15
2018-07-02T20:04:30.246Z,25.48
2018-07-02T20:06:57.822Z,16.60
2018-07-02T20:09:25.275Z,13.73
2018-07-02T20:11:52.743Z,11.40
2018-07-02T20:14:20.179Z,19.73
2018-07-02T20:16:47.705Z,20.30
2018-07-02T20:19:15.755Z,12.50
2018-07-02T20:21:43.154Z,21.83
2018-07-02T20:24:10.643Z,20.37
2018-07-02T20:26:38.114Z,32.03
2018-07-02T20:29:05.558Z,20.95
2018-07-02T20:31:33.026Z,19.98
2018-07-02T20:34:00.464Z,18.05
2018-07-02T20:36:27.957Z,15.13
2018-07-02T20:38:55.446Z,20.83
2018-07-02T20:41:22.933Z,13.18
2018-07-02T20:43:50.461Z,13.95
2018-07-02T20:46:18.196Z,14.45
2018-07-02T20:48:45.604Z,23.35
2018-07-02T20:51:13.134Z,18.80
2018-07-02T20:53:40.594Z,20.85
2018-07-02T20:56:08.081Z,15.82
2018-07-02T20:58:35.623Z,10.35
2018-07-02T21:01:03.090Z,11.18
2018-07-02T21:03:30.554Z,21.62
2018-07-02T21:05:57.983Z,13.65
2018-07-02T21:08:25.503Z,12.90
2018-07-02T21:10:52.955Z,15.55
2018-07-02T21:13:20.454Z,21.62
2018-07-02T21:15:47.897Z,13.65
2018-07-02T21:18:15.272Z,9.95
2018-07-02T21:20:42.693Z,14.15
2018-07-02T21:23:10.140Z,14.32
2018-07-02T21:25:37.571Z,10.60
2018-07-02T21:28:04.984Z,10.02
2018-07-02T21:30:32.442Z,10.27
2018-07-02T21:32:59.894Z,10.63
2018-07-02T21:35:27.346Z,14.70
2018-07-02T21:37:54.787Z,16.35
2018-07-02T21:40:22.215Z,10.57
2018-07-02T21:42:49.632Z,8.00
2018-07-02T21:45:17.121Z,11.95
2018-07-02T21:47:44.589Z,9.88
2018-07-02T21:50:12.132Z,12.00
2018-07-02T21:52:39.611Z,17.08
2018-07-02T21:55:07.077Z,9.88
2018-07-02T21:57:34.537Z,16.27
2018-07-02T22:00:01.943Z,12.65
2018-07-02T22:02:29.579Z,9.80
2018-07-02T22:04:56.994Z,18.58
2018-07-02T22:07:25.063Z,14.87
2018-07-02T22:09:52.508Z,11.23
2018-07-02T22:12:19.972Z,19.58
2018-07-02T22:14:47.425Z,14.82
2018-07-02T22:17:14.837Z,15.30
2018-07-02T22:19:42.294Z,13.00
2018-07-02T22:22:09.754Z,22.75
2018-07-02T22:24:37.219Z,15.90
2018-07-02T22:27:04.786Z,13.75
2018-07-02T22:29:32.235Z,19.70
2018-07-02T22:31:59.854Z,13.27
2018-07-02T22:34:27.297Z,10.70
2018-07-02T22:36:54.779Z,8.65
2018-07-02T22:39:22.203Z,12.82
2018-07-02T22:41:49.702Z,12.70
2018-07-02T22:44:17.103Z,12.77
2018-07-02T22:46:44.589Z,16.15
2018-07-02T22:49:12.116Z,12.52
2018-07-02T22:51:39.580Z,14.30
2018-07-02T22:54:07.169Z,12.85
2018-07-02T22:56:34.618Z,16.67
2018-07-02T22:59:02.322Z,9.57
2018-07-02T23:01:29.755Z,10.80
2018-07-02T23:03:57.241Z,19.50
2018-07-02T23:06:24.783Z,14.05
2018-07-02T23:08:52.227Z,16.90
2018-07-02T23:11:19.685Z,11.60
2018-07-02T23:13:47.132Z,17.02
2018-07-02T23:16:14.614Z,9.73
2018-07-02T23:18:42.229Z,13.02
2018-07-02T23:21:09.689Z,10.93
2018-07-02T23:23:37.179Z,8.65
2018-07-02T23:26:04.655Z,11.65
2018-07-02T23:28:32.120Z,91.35
2018-07-02T23:30:59.965Z,89.53
2018-07-02T23:33:27.447Z,102.70
2018-07-02T23:35:54.871Z,110.55
2018-07-02T23:38:22.363Z,29.67
2018-07-02T23:40:49.930Z,17.77
2018-07-02T23:43:17.388Z,20.50
2018-07-02T23:45:44.912Z,15.52
2018-07-02T23:48:12.458Z,13.68
2018-07-02T23:50:39.908Z,11.00
2018-07-02T23:53:07.378Z,8.15
2018-07-02T23:55:34.816Z,12.77
2018-07-02T23:58:02.248Z,10.93
